sensor_id;sensor_type;location;lat;lon;timestamp;temperature;humidity
58339;DHT22;68636;52.704;6.536;2023-03-23T00:02:12;11.20;99.90
58339;DHT22;68636;52.704;6.536;2023-03-23T00:04:37;11.20;99.90
58339;DHT22;68636;52.704;6.536;2023-03-23T00:07:03;11.20;99.90
58339;DHT22;68636;52.704;6.536;2023-03-23T00:09:29;11.20;99.90
58339;DHT22;68636;52.704;6.536;2023-03-23T00:12:00;11.10;99.90
58339;DHT22;68636;52.704;6.536;2023-03-23T00:14:31;11.10;99.90
58339;DHT22;68636;52.704;6.536;2023-03-23T00:17:08;11.20;99.90
58339;DHT22;68636;52.704;6.536;2023-03-23T00:19:36;11.20;99.90
58339;DHT22;68636;52.704;6.536;2023-03-23T00:22:15;11.20;99.90
58339;DHT22;68636;52.704;6.536;2023-03-23T00:24:42;11.20;99.90
58339;DHT22;68636;52.704;6.536;2023-03-23T00:27:09;11.30;99.90
58339;DHT22;68636;52.704;6.536;2023-03-23T00:29:38;11.20;99.90
58339;DHT22;68636;52.704;6.536;2023-03-23T00:32:04;11.20;99.90
58339;DHT22;68636;52.704;6.536;2023-03-23T00:34:30;11.20;99.90
58339;DHT22;68636;52.704;6.536;2023-03-23T00:36:58;11.20;99.90
58339;DHT22;68636;52.704;6.536;2023-03-23T00:39:27;11.20;99.90
58339;DHT22;68636;52.704;6.536;2023-03-23T00:41:54;11.20;99.90
58339;DHT22;68636;52.704;6.536;2023-03-23T00:44:27;11.20;99.90
58339;DHT22;68636;52.704;6.536;2023-03-23T00:46:54;11.20;99.90
58339;DHT22;68636;52.704;6.536;2023-03-23T00:49:22;11.30;99.90
58339;DHT22;68636;52.704;6.536;2023-03-23T00:51:53;11.20;99.90
58339;DHT22;68636;52.704;6.536;2023-03-23T00:54:19;11.40;99.90
58339;DHT22;68636;52.704;6.536;2023-03-23T00:56:46;11.40;99.90
58339;DHT22;68636;52.704;6.536;2023-03-23T00:59:12;11.40;99.90
58339;DHT22;68636;52.704;6.536;2023-03-23T01:01:38;11.40;99.90
58339;DHT22;68636;52.704;6.536;2023-03-23T01:04:05;11.40;99.90
58339;DHT22;68636;52.704;6.536;2023-03-23T01:06:33;11.40;99.90
58339;DHT22;68636;52.704;6.536;2023-03-23T01:09:01;11.40;99.90
58339;DHT22;68636;52.704;6.536;2023-03-23T01:11:29;11.40;99.90
58339;DHT22;68636;52.704;6.536;2023-03-23T01:13:54;11.40;99.90
58339;DHT22;68636;52.704;6.536;2023-03-23T01:16:21;11.40;99.90
58339;DHT22;68636;52.704;6.536;2023-03-23T01:18:47;11.40;99.90
58339;DHT22;68636;52.704;6.536;2023-03-23T01:21:15;11.40;99.90
58339;DHT22;68636;52.704;6.536;2023-03-23T01:23:41;11.30;99.90
58339;DHT22;68636;52.704;6.536;2023-03-23T01:26:10;11.30;99.90
58339;DHT22;68636;52.704;6.536;2023-03-23T01:28:36;11.30;99.90
58339;DHT22;68636;52.704;6.536;2023-03-23T01:31:04;11.30;99.90
58339;DHT22;68636;52.704;6.536;2023-03-23T01:33:31;11.30;99.90
58339;DHT22;68636;52.704;6.536;2023-03-23T01:35:58;11.20;99.90
58339;DHT22;68636;52.704;6.536;2023-03-23T01:38:23;11.20;99.90
58339;DHT22;68636;52.704;6.536;2023-03-23T01:40:49;11.20;99.90
58339;DHT22;68636;52.704;6.536;2023-03-23T01:43:16;11.30;99.90
58339;DHT22;68636;52.704;6.536;2023-03-23T01:45:42;11.30;99.90
58339;DHT22;68636;52.704;6.536;2023-03-23T01:48:16;11.30;99.90
58339;DHT22;68636;52.704;6.536;2023-03-23T01:53:18;11.40;99.90
58339;DHT22;68636;52.704;6.536;2023-03-23T01:55:46;11.50;99.90
58339;DHT22;68636;52.704;6.536;2023-03-23T01:58:18;11.40;99.90
58339;DHT22;68636;52.704;6.536;2023-03-23T02:00:45;11.40;99.90
58339;DHT22;68636;52.704;6.536;2023-03-23T02:03:14;11.40;99.90
58339;DHT22;68636;52.704;6.536;2023-03-23T02:05:42;11.40;99.90
58339;DHT22;68636;52.704;6.536;2023-03-23T02:08:10;11.30;99.90
58339;DHT22;68636;52.704;6.536;2023-03-23T02:10:37;11.30;99.90
58339;DHT22;68636;52.704;6.536;2023-03-23T02:13:03;11.30;99.90
58339;DHT22;68636;52.704;6.536;2023-03-23T02:15:43;11.30;99.90
58339;DHT22;68636;52.704;6.536;2023-03-23T02:18:46;11.30;99.90
58339;DHT22;68636;52.704;6.536;2023-03-23T02:27:14;11.40;99.90
58339;DHT22;68636;52.704;6.536;2023-03-23T02:35:24;11.30;99.90
58339;DHT22;68636;52.704;6.536;2023-03-23T02:38:02;11.30;99.90
58339;DHT22;68636;52.704;6.536;2023-03-23T02:40:42;11.30;99.90
58339;DHT22;68636;52.704;6.536;2023-03-23T02:43:20;11.30;99.90
58339;DHT22;68636;52.704;6.536;2023-03-23T02:45:46;11.30;99.90
58339;DHT22;68636;52.704;6.536;2023-03-23T02:48:14;11.20;99.90
58339;DHT22;68636;52.704;6.536;2023-03-23T02:50:44;11.30;99.90
58339;DHT22;68636;52.704;6.536;2023-03-23T02:53:11;11.20;99.90
58339;DHT22;68636;52.704;6.536;2023-03-23T02:55:41;11.20;99.90
58339;DHT22;68636;52.704;6.536;2023-03-23T02:58:08;11.30;99.90
58339;DHT22;68636;52.704;6.536;2023-03-23T03:00:34;11.30;99.90
58339;DHT22;68636;52.704;6.536;2023-03-23T03:03:01;11.30;99.90
58339;DHT22;68636;52.704;6.536;2023-03-23T03:05:44;11.20;99.90
58339;DHT22;68636;52.704;6.536;2023-03-23T03:08:18;11.20;99.90
58339;DHT22;68636;52.704;6.536;2023-03-23T03:19:22;11.30;99.90
58339;DHT22;68636;52.704;6.536;2023-03-23T03:21:52;11.30;99.90
58339;DHT22;68636;52.704;6.536;2023-03-23T03:24:20;11.30;99.90
58339;DHT22;68636;52.704;6.536;2023-03-23T03:26:49;11.30;99.90
58339;DHT22;68636;52.704;6.536;2023-03-23T03:29:18;11.30;99.90
58339;DHT22;68636;52.704;6.536;2023-03-23T03:31:46;11.30;99.90
58339;DHT22;68636;52.704;6.536;2023-03-23T03:34:14;11.40;99.90
58339;DHT22;68636;52.704;6.536;2023-03-23T03:36:46;11.40;99.90
58339;DHT22;68636;52.704;6.536;2023-03-23T03:39:13;11.40;99.90
58339;DHT22;68636;52.704;6.536;2023-03-23T03:41:41;11.40;99.90
58339;DHT22;68636;52.704;6.536;2023-03-23T03:44:08;11.50;99.90
58339;DHT22;68636;52.704;6.536;2023-03-23T03:46:34;11.50;99.90
58339;DHT22;68636;52.704;6.536;2023-03-23T03:49:02;11.50;99.90
58339;DHT22;68636;52.704;6.536;2023-03-23T03:51:29;11.50;99.90
58339;DHT22;68636;52.704;6.536;2023-03-23T03:53:55;11.50;99.90
58339;DHT22;68636;52.704;6.536;2023-03-23T03:56:22;11.50;99.90
58339;DHT22;68636;52.704;6.536;2023-03-23T03:58:49;11.40;99.90
58339;DHT22;68636;52.704;6.536;2023-03-23T04:01:16;11.40;99.90
58339;DHT22;68636;52.704;6.536;2023-03-23T04:03:43;11.40;99.90
58339;DHT22;68636;52.704;6.536;2023-03-23T04:06:10;11.40;99.90
58339;DHT22;68636;52.704;6.536;2023-03-23T04:08:38;11.40;99.90
58339;DHT22;68636;52.704;6.536;2023-03-23T04:11:04;11.40;99.90
58339;DHT22;68636;52.704;6.536;2023-03-23T04:13:30;11.40;99.90
58339;DHT22;68636;52.704;6.536;2023-03-23T04:15:56;11.50;99.90
58339;DHT22;68636;52.704;6.536;2023-03-23T04:18:22;11.40;99.90
58339;DHT22;68636;52.704;6.536;2023-03-23T04:20:49;11.50;99.90
58339;DHT22;68636;52.704;6.536;2023-03-23T04:23:16;11.60;99.90
58339;DHT22;68636;52.704;6.536;2023-03-23T04:25:48;11.50;99.90
58339;DHT22;68636;52.704;6.536;2023-03-23T04:28:15;11.60;99.90
58339;DHT22;68636;52.704;6.536;2023-03-23T04:30:42;11.60;99.90
58339;DHT22;68636;52.704;6.536;2023-03-23T04:33:09;11.60;99.90
58339;DHT22;68636;52.704;6.536;2023-03-23T04:35:40;11.60;99.90
58339;DHT22;68636;52.704;6.536;2023-03-23T04:38:07;11.60;99.90
58339;DHT22;68636;52.704;6.536;2023-03-23T04:40:39;11.60;99.90
58339;DHT22;68636;52.704;6.536;2023-03-23T04:43:05;11.60;99.90
58339;DHT22;68636;52.704;6.536;2023-03-23T04:45:33;11.60;99.90
58339;DHT22;68636;52.704;6.536;2023-03-23T04:47:59;11.60;99.90
58339;DHT22;68636;52.704;6.536;2023-03-23T04:50:29;11.60;99.90
58339;DHT22;68636;52.704;6.536;2023-03-23T04:52:59;11.70;99.90
58339;DHT22;68636;52.704;6.536;2023-03-23T04:55:33;11.70;99.90
58339;DHT22;68636;52.704;6.536;2023-03-23T04:58:04;11.60;99.90
58339;DHT22;68636;52.704;6.536;2023-03-23T05:00:32;11.60;99.90
58339;DHT22;68636;52.704;6.536;2023-03-23T05:02:58;11.60;99.90
58339;DHT22;68636;52.704;6.536;2023-03-23T05:05:24;11.70;99.90
58339;DHT22;68636;52.704;6.536;2023-03-23T05:07:53;11.70;99.90
58339;DHT22;68636;52.704;6.536;2023-03-23T05:10:19;11.70;99.90
58339;DHT22;68636;52.704;6.536;2023-03-23T05:12:45;11.60;99.90
58339;DHT22;68636;52.704;6.536;2023-03-23T05:15:12;11.50;99.90
58339;DHT22;68636;52.704;6.536;2023-03-23T05:17:39;11.50;99.90
58339;DHT22;68636;52.704;6.536;2023-03-23T05:20:06;11.50;99.90
58339;DHT22;68636;52.704;6.536;2023-03-23T05:22:37;11.40;99.90
58339;DHT22;68636;52.704;6.536;2023-03-23T05:25:04;11.30;99.90
58339;DHT22;68636;52.704;6.536;2023-03-23T05:27:31;11.20;99.90
58339;DHT22;68636;52.704;6.536;2023-03-23T05:29:58;11.10;99.90
58339;DHT22;68636;52.704;6.536;2023-03-23T05:32:28;11.10;99.90
58339;DHT22;68636;52.704;6.536;2023-03-23T05:34:59;11.10;99.90
58339;DHT22;68636;52.704;6.536;2023-03-23T05:37:27;11.20;99.90
58339;DHT22;68636;52.704;6.536;2023-03-23T05:39:54;11.10;99.90
58339;DHT22;68636;52.704;6.536;2023-03-23T05:42:22;11.10;99.90
58339;DHT22;68636;52.704;6.536;2023-03-23T05:44:49;11.00;99.90
58339;DHT22;68636;52.704;6.536;2023-03-23T05:47:15;11.00;99.90
58339;DHT22;68636;52.704;6.536;2023-03-23T05:49:41;11.00;99.90
58339;DHT22;68636;52.704;6.536;2023-03-23T05:52:07;11.00;99.90
58339;DHT22;68636;52.704;6.536;2023-03-23T05:54:33;11.00;99.90
58339;DHT22;68636;52.704;6.536;2023-03-23T05:56:59;11.00;99.90
58339;DHT22;68636;52.704;6.536;2023-03-23T05:59:25;11.00;99.90
58339;DHT22;68636;52.704;6.536;2023-03-23T06:01:52;11.00;99.90
58339;DHT22;68636;52.704;6.536;2023-03-23T06:04:19;11.00;99.90
58339;DHT22;68636;52.704;6.536;2023-03-23T06:06:45;10.90;99.90
58339;DHT22;68636;52.704;6.536;2023-03-23T06:09:11;10.90;99.90
58339;DHT22;68636;52.704;6.536;2023-03-23T06:11:37;10.90;99.90
58339;DHT22;68636;52.704;6.536;2023-03-23T06:14:06;10.90;99.90
58339;DHT22;68636;52.704;6.536;2023-03-23T06:16:32;10.90;99.90
58339;DHT22;68636;52.704;6.536;2023-03-23T06:18:58;10.90;99.90
58339;DHT22;68636;52.704;6.536;2023-03-23T06:21:26;11.00;99.90
58339;DHT22;68636;52.704;6.536;2023-03-23T06:23:52;10.90;99.90
58339;DHT22;68636;52.704;6.536;2023-03-23T06:26:19;11.00;99.90
58339;DHT22;68636;52.704;6.536;2023-03-23T06:28:45;10.90;99.90
58339;DHT22;68636;52.704;6.536;2023-03-23T06:31:11;10.90;99.90
58339;DHT22;68636;52.704;6.536;2023-03-23T06:33:37;10.90;99.90
58339;DHT22;68636;52.704;6.536;2023-03-23T06:36:04;10.90;99.90
58339;DHT22;68636;52.704;6.536;2023-03-23T06:38:30;10.90;99.90
58339;DHT22;68636;52.704;6.536;2023-03-23T06:40:57;11.00;99.90
58339;DHT22;68636;52.704;6.536;2023-03-23T06:43:23;11.00;99.90
58339;DHT22;68636;52.704;6.536;2023-03-23T06:45:49;11.10;99.90
58339;DHT22;68636;52.704;6.536;2023-03-23T06:48:15;11.10;99.90
58339;DHT22;68636;52.704;6.536;2023-03-23T06:50:45;11.10;99.90
58339;DHT22;68636;52.704;6.536;2023-03-23T06:53:11;11.20;99.90
58339;DHT22;68636;52.704;6.536;2023-03-23T06:55:37;11.10;99.90
58339;DHT22;68636;52.704;6.536;2023-03-23T06:58:04;11.20;99.90
58339;DHT22;68636;52.704;6.536;2023-03-23T07:00:32;11.20;99.90
58339;DHT22;68636;52.704;6.536;2023-03-23T07:02:58;11.30;99.90
58339;DHT22;68636;52.704;6.536;2023-03-23T07:05:24;11.20;99.90
58339;DHT22;68636;52.704;6.536;2023-03-23T07:07:50;11.30;99.90
58339;DHT22;68636;52.704;6.536;2023-03-23T07:10:16;11.30;99.90
58339;DHT22;68636;52.704;6.536;2023-03-23T07:12:42;11.30;99.90
58339;DHT22;68636;52.704;6.536;2023-03-23T07:15:11;11.30;99.90
58339;DHT22;68636;52.704;6.536;2023-03-23T07:17:38;11.30;99.90
58339;DHT22;68636;52.704;6.536;2023-03-23T07:20:06;11.30;99.90
58339;DHT22;68636;52.704;6.536;2023-03-23T07:22:32;11.40;99.90
58339;DHT22;68636;52.704;6.536;2023-03-23T07:24:58;11.40;99.90
58339;DHT22;68636;52.704;6.536;2023-03-23T07:27:24;11.40;99.90
58339;DHT22;68636;52.704;6.536;2023-03-23T07:29:50;11.40;99.90
58339;DHT22;68636;52.704;6.536;2023-03-23T07:32:16;11.40;99.90
58339;DHT22;68636;52.704;6.536;2023-03-23T07:34:42;11.50;99.90
58339;DHT22;68636;52.704;6.536;2023-03-23T07:37:08;11.50;99.90
58339;DHT22;68636;52.704;6.536;2023-03-23T07:39:35;11.70;99.90
58339;DHT22;68636;52.704;6.536;2023-03-23T07:42:01;11.70;99.90
58339;DHT22;68636;52.704;6.536;2023-03-23T07:44:29;11.80;99.90
58339;DHT22;68636;52.704;6.536;2023-03-23T07:46:55;11.80;99.90
58339;DHT22;68636;52.704;6.536;2023-03-23T07:49:21;11.90;99.90
58339;DHT22;68636;52.704;6.536;2023-03-23T07:51:47;11.90;99.90
58339;DHT22;68636;52.704;6.536;2023-03-23T07:54:13;12.00;99.90
58339;DHT22;68636;52.704;6.536;2023-03-23T07:56:41;12.10;99.90
58339;DHT22;68636;52.704;6.536;2023-03-23T07:59:08;12.10;99.90
58339;DHT22;68636;52.704;6.536;2023-03-23T08:01:35;12.10;99.90
58339;DHT22;68636;52.704;6.536;2023-03-23T08:04:00;12.20;99.90
58339;DHT22;68636;52.704;6.536;2023-03-23T08:06:27;12.30;99.90
58339;DHT22;68636;52.704;6.536;2023-03-23T08:08:53;12.20;99.90
58339;DHT22;68636;52.704;6.536;2023-03-23T08:11:19;12.30;99.90
58339;DHT22;68636;52.704;6.536;2023-03-23T08:13:46;12.20;99.90
58339;DHT22;68636;52.704;6.536;2023-03-23T08:16:12;12.10;99.90
58339;DHT22;68636;52.704;6.536;2023-03-23T08:18:38;12.10;99.90
58339;DHT22;68636;52.704;6.536;2023-03-23T08:21:06;12.20;99.90
58339;DHT22;68636;52.704;6.536;2023-03-23T08:23:34;12.20;99.90
58339;DHT22;68636;52.704;6.536;2023-03-23T08:26:05;12.30;99.90
58339;DHT22;68636;52.704;6.536;2023-03-23T08:28:33;12.20;99.90
58339;DHT22;68636;52.704;6.536;2023-03-23T08:30:58;12.30;99.90
58339;DHT22;68636;52.704;6.536;2023-03-23T08:33:24;12.40;99.90
58339;DHT22;68636;52.704;6.536;2023-03-23T08:35:58;12.30;99.90
58339;DHT22;68636;52.704;6.536;2023-03-23T08:38:24;12.30;99.90
58339;DHT22;68636;52.704;6.536;2023-03-23T08:40:50;12.30;99.90
58339;DHT22;68636;52.704;6.536;2023-03-23T08:43:17;12.20;99.90
58339;DHT22;68636;52.704;6.536;2023-03-23T08:45:43;12.20;99.90
58339;DHT22;68636;52.704;6.536;2023-03-23T08:48:09;12.30;99.90
58339;DHT22;68636;52.704;6.536;2023-03-23T08:50:36;12.40;99.90
58339;DHT22;68636;52.704;6.536;2023-03-23T08:53:02;12.50;99.90
58339;DHT22;68636;52.704;6.536;2023-03-23T08:55:29;12.60;99.90
58339;DHT22;68636;52.704;6.536;2023-03-23T08:57:55;12.60;99.90
58339;DHT22;68636;52.704;6.536;2023-03-23T09:00:21;12.70;99.90
58339;DHT22;68636;52.704;6.536;2023-03-23T09:02:51;12.70;99.90
58339;DHT22;68636;52.704;6.536;2023-03-23T09:05:21;12.90;99.90
58339;DHT22;68636;52.704;6.536;2023-03-23T09:07:49;12.90;99.90
58339;DHT22;68636;52.704;6.536;2023-03-23T09:10:16;13.10;99.90
58339;DHT22;68636;52.704;6.536;2023-03-23T09:12:44;13.20;99.90
58339;DHT22;68636;52.704;6.536;2023-03-23T09:15:12;13.10;99.90
58339;DHT22;68636;52.704;6.536;2023-03-23T09:17:42;13.00;99.90
58339;DHT22;68636;52.704;6.536;2023-03-23T09:20:09;12.90;99.90
58339;DHT22;68636;52.704;6.536;2023-03-23T09:22:46;12.80;99.90
58339;DHT22;68636;52.704;6.536;2023-03-23T09:25:14;12.70;99.90
58339;DHT22;68636;52.704;6.536;2023-03-23T09:27:42;12.70;99.90
58339;DHT22;68636;52.704;6.536;2023-03-23T09:30:12;12.80;99.90
58339;DHT22;68636;52.704;6.536;2023-03-23T09:32:39;13.00;99.90
58339;DHT22;68636;52.704;6.536;2023-03-23T09:35:07;13.10;99.90
58339;DHT22;68636;52.704;6.536;2023-03-23T09:37:39;13.20;99.90
58339;DHT22;68636;52.704;6.536;2023-03-23T09:40:05;13.30;99.90
58339;DHT22;68636;52.704;6.536;2023-03-23T09:42:53;13.30;99.90
58339;DHT22;68636;52.704;6.536;2023-03-23T09:45:48;13.30;99.90
58339;DHT22;68636;52.704;6.536;2023-03-23T09:53:44;12.80;99.90
58339;DHT22;68636;52.704;6.536;2023-03-23T09:56:14;12.80;99.90
58339;DHT22;68636;52.704;6.536;2023-03-23T09:58:55;12.80;99.90
58339;DHT22;68636;52.704;6.536;2023-03-23T10:01:31;12.70;99.90
58339;DHT22;68636;52.704;6.536;2023-03-23T10:04:14;12.70;99.90
58339;DHT22;68636;52.704;6.536;2023-03-23T10:06:42;12.70;99.90
58339;DHT22;68636;52.704;6.536;2023-03-23T10:09:13;13.00;99.90
58339;DHT22;68636;52.704;6.536;2023-03-23T10:11:54;13.30;99.90
58339;DHT22;68636;52.704;6.536;2023-03-23T10:14:28;13.50;99.90
58339;DHT22;68636;52.704;6.536;2023-03-23T10:22:28;14.20;99.90
58339;DHT22;68636;52.704;6.536;2023-03-23T10:30:33;14.30;99.90
58339;DHT22;68636;52.704;6.536;2023-03-23T10:33:22;14.50;99.90
58339;DHT22;68636;52.704;6.536;2023-03-23T10:35:57;14.90;99.90
58339;DHT22;68636;52.704;6.536;2023-03-23T10:38:45;14.90;99.90
58339;DHT22;68636;52.704;6.536;2023-03-23T10:41:18;14.90;99.90
58339;DHT22;68636;52.704;6.536;2023-03-23T10:43:45;14.90;99.90
58339;DHT22;68636;52.704;6.536;2023-03-23T10:46:42;15.00;99.90
58339;DHT22;68636;52.704;6.536;2023-03-23T10:49:23;14.80;99.90
58339;DHT22;68636;52.704;6.536;2023-03-23T10:52:24;14.90;99.90
58339;DHT22;68636;52.704;6.536;2023-03-23T10:55:16;14.90;99.90
58339;DHT22;68636;52.704;6.536;2023-03-23T10:57:44;15.00;99.90
58339;DHT22;68636;52.704;6.536;2023-03-23T11:02:57;15.00;99.90
58339;DHT22;68636;52.704;6.536;2023-03-23T11:05:38;14.90;99.90
58339;DHT22;68636;52.704;6.536;2023-03-23T11:08:19;14.80;99.90
58339;DHT22;68636;52.704;6.536;2023-03-23T11:10:56;14.90;99.90
58339;DHT22;68636;52.704;6.536;2023-03-23T11:13:31;15.00;99.90
58339;DHT22;68636;52.704;6.536;2023-03-23T11:15:58;15.00;99.90
58339;DHT22;68636;52.704;6.536;2023-03-23T11:18:25;15.10;99.90
58339;DHT22;68636;52.704;6.536;2023-03-23T11:20:56;15.30;99.90
58339;DHT22;68636;52.704;6.536;2023-03-23T11:23:41;15.40;99.90
58339;DHT22;68636;52.704;6.536;2023-03-23T11:26:26;15.70;99.90
58339;DHT22;68636;52.704;6.536;2023-03-23T11:28:57;15.70;99.90
58339;DHT22;68636;52.704;6.536;2023-03-23T11:31:29;16.00;99.90
58339;DHT22;68636;52.704;6.536;2023-03-23T11:33:58;15.90;99.90
58339;DHT22;68636;52.704;6.536;2023-03-23T11:36:38;15.80;99.90
58339;DHT22;68636;52.704;6.536;2023-03-23T11:41:47;15.60;99.90
58339;DHT22;68636;52.704;6.536;2023-03-23T11:44:14;15.50;99.90
58339;DHT22;68636;52.704;6.536;2023-03-23T11:55:21;15.90;99.90
58339;DHT22;68636;52.704;6.536;2023-03-23T11:57:44;15.80;99.90
58339;DHT22;68636;52.704;6.536;2023-03-23T12:00:20;15.90;99.90
58339;DHT22;68636;52.704;6.536;2023-03-23T12:03:07;15.80;99.90
58339;DHT22;68636;52.704;6.536;2023-03-23T12:05:52;15.80;99.90
58339;DHT22;68636;52.704;6.536;2023-03-23T12:16:06;16.00;99.90
58339;DHT22;68636;52.704;6.536;2023-03-23T12:27:09;16.40;99.90
58339;DHT22;68636;52.704;6.536;2023-03-23T12:42:58;16.30;99.90
58339;DHT22;68636;52.704;6.536;2023-03-23T12:45:53;16.40;99.90
58339;DHT22;68636;52.704;6.536;2023-03-23T12:48:31;16.70;99.90
58339;DHT22;68636;52.704;6.536;2023-03-23T12:54:21;16.80;99.90
58339;DHT22;68636;52.704;6.536;2023-03-23T12:56:34;16.70;99.90
58339;DHT22;68636;52.704;6.536;2023-03-23T12:59:22;16.60;99.90
58339;DHT22;68636;52.704;6.536;2023-03-23T13:01:55;16.60;99.90
58339;DHT22;68636;52.704;6.536;2023-03-23T13:04:36;16.30;99.90
58339;DHT22;68636;52.704;6.536;2023-03-23T13:07:06;16.10;99.90
58339;DHT22;68636;52.704;6.536;2023-03-23T13:12:35;16.00;99.90
58339;DHT22;68636;52.704;6.536;2023-03-23T13:25:51;15.80;99.90
58339;DHT22;68636;52.704;6.536;2023-03-23T13:28:22;15.70;99.90
58339;DHT22;68636;52.704;6.536;2023-03-23T13:33:36;16.00;99.90
58339;DHT22;68636;52.704;6.536;2023-03-23T13:36:09;15.90;99.90
58339;DHT22;68636;52.704;6.536;2023-03-23T13:38:36;16.10;99.90
58339;DHT22;68636;52.704;6.536;2023-03-23T13:41:11;16.10;99.90
58339;DHT22;68636;52.704;6.536;2023-03-23T13:43:40;16.20;99.90
58339;DHT22;68636;52.704;6.536;2023-03-23T13:46:32;16.10;99.90
58339;DHT22;68636;52.704;6.536;2023-03-23T13:49:16;16.20;99.90
58339;DHT22;68636;52.704;6.536;2023-03-23T13:54:32;16.40;99.90
58339;DHT22;68636;52.704;6.536;2023-03-23T13:57:26;16.20;99.90
58339;DHT22;68636;52.704;6.536;2023-03-23T13:59:58;16.10;99.90
58339;DHT22;68636;52.704;6.536;2023-03-23T14:02:34;16.00;99.90
58339;DHT22;68636;52.704;6.536;2023-03-23T14:10:38;15.40;99.90
58339;DHT22;68636;52.704;6.536;2023-03-23T14:13:10;15.50;99.90
58339;DHT22;68636;52.704;6.536;2023-03-23T14:15:54;15.70;99.90
58339;DHT22;68636;52.704;6.536;2023-03-23T14:18:23;15.90;99.90
58339;DHT22;68636;52.704;6.536;2023-03-23T14:20:49;15.90;99.90
58339;DHT22;68636;52.704;6.536;2023-03-23T14:23:17;16.00;99.90
58339;DHT22;68636;52.704;6.536;2023-03-23T14:25:43;16.10;99.90
58339;DHT22;68636;52.704;6.536;2023-03-23T14:28:20;15.80;99.90
58339;DHT22;68636;52.704;6.536;2023-03-23T14:30:52;15.60;99.90
58339;DHT22;68636;52.704;6.536;2023-03-23T14:33:19;15.20;99.90
58339;DHT22;68636;52.704;6.536;2023-03-23T14:35:45;14.80;99.90
58339;DHT22;68636;52.704;6.536;2023-03-23T14:38:21;14.50;99.90
58339;DHT22;68636;52.704;6.536;2023-03-23T14:40:50;14.50;99.90
58339;DHT22;68636;52.704;6.536;2023-03-23T14:43:18;14.00;99.90
58339;DHT22;68636;52.704;6.536;2023-03-23T14:45:52;13.80;99.90
58339;DHT22;68636;52.704;6.536;2023-03-23T14:48:18;13.60;99.90
58339;DHT22;68636;52.704;6.536;2023-03-23T14:50:51;13.50;99.90
58339;DHT22;68636;52.704;6.536;2023-03-23T14:53:19;13.50;99.90
58339;DHT22;68636;52.704;6.536;2023-03-23T14:55:47;13.40;99.90
58339;DHT22;68636;52.704;6.536;2023-03-23T14:58:16;13.60;99.90
58339;DHT22;68636;52.704;6.536;2023-03-23T15:00:54;13.60;99.90
58339;DHT22;68636;52.704;6.536;2023-03-23T15:03:22;13.70;99.90
58339;DHT22;68636;52.704;6.536;2023-03-23T15:05:55;13.90;99.90
58339;DHT22;68636;52.704;6.536;2023-03-23T15:08:30;13.90;99.90
58339;DHT22;68636;52.704;6.536;2023-03-23T15:11:20;14.00;99.90
58339;DHT22;68636;52.704;6.536;2023-03-23T15:13:49;14.00;99.90
58339;DHT22;68636;52.704;6.536;2023-03-23T15:16:22;14.10;99.90
58339;DHT22;68636;52.704;6.536;2023-03-23T15:19:04;14.10;99.90
58339;DHT22;68636;52.704;6.536;2023-03-23T15:21:45;14.10;99.90
58339;DHT22;68636;52.704;6.536;2023-03-23T15:24:26;14.00;99.90
58339;DHT22;68636;52.704;6.536;2023-03-23T15:26:52;14.10;99.90
58339;DHT22;68636;52.704;6.536;2023-03-23T15:29:20;14.20;99.90
58339;DHT22;68636;52.704;6.536;2023-03-23T15:31:50;14.50;99.90
58339;DHT22;68636;52.704;6.536;2023-03-23T15:39:16;14.40;99.90
58339;DHT22;68636;52.704;6.536;2023-03-23T15:41:48;14.40;99.90
58339;DHT22;68636;52.704;6.536;2023-03-23T15:44:25;14.40;99.90
58339;DHT22;68636;52.704;6.536;2023-03-23T15:47:02;14.40;99.90
58339;DHT22;68636;52.704;6.536;2023-03-23T15:49:28;14.30;99.90
58339;DHT22;68636;52.704;6.536;2023-03-23T15:51:54;14.30;99.90
58339;DHT22;68636;52.704;6.536;2023-03-23T15:54:20;14.40;99.90
58339;DHT22;68636;52.704;6.536;2023-03-23T15:56:46;14.40;99.90
58339;DHT22;68636;52.704;6.536;2023-03-23T15:59:12;14.40;99.90
58339;DHT22;68636;52.704;6.536;2023-03-23T16:01:40;14.40;99.90
58339;DHT22;68636;52.704;6.536;2023-03-23T16:04:16;14.50;99.90
58339;DHT22;68636;52.704;6.536;2023-03-23T16:06:43;14.60;99.90
58339;DHT22;68636;52.704;6.536;2023-03-23T16:09:18;14.50;99.90
58339;DHT22;68636;52.704;6.536;2023-03-23T16:11:45;14.10;99.90
58339;DHT22;68636;52.704;6.536;2023-03-23T16:14:11;14.00;99.90
58339;DHT22;68636;52.704;6.536;2023-03-23T16:16:47;13.80;99.90
58339;DHT22;68636;52.704;6.536;2023-03-23T16:19:14;13.70;99.90
58339;DHT22;68636;52.704;6.536;2023-03-23T16:21:40;13.50;99.90
58339;DHT22;68636;52.704;6.536;2023-03-23T16:24:07;13.50;99.90
58339;DHT22;68636;52.704;6.536;2023-03-23T16:26:34;13.50;99.90
58339;DHT22;68636;52.704;6.536;2023-03-23T16:28:59;13.50;99.90
58339;DHT22;68636;52.704;6.536;2023-03-23T16:31:27;13.40;99.90
58339;DHT22;68636;52.704;6.536;2023-03-23T16:33:54;13.40;99.90
58339;DHT22;68636;52.704;6.536;2023-03-23T16:36:19;13.40;99.90
58339;DHT22;68636;52.704;6.536;2023-03-23T16:38:45;13.40;99.90
58339;DHT22;68636;52.704;6.536;2023-03-23T16:41:11;13.40;99.90
58339;DHT22;68636;52.704;6.536;2023-03-23T16:43:37;13.40;99.90
58339;DHT22;68636;52.704;6.536;2023-03-23T16:46:03;13.40;99.90
58339;DHT22;68636;52.704;6.536;2023-03-23T16:48:29;13.30;99.90
58339;DHT22;68636;52.704;6.536;2023-03-23T16:50:55;13.20;99.90
58339;DHT22;68636;52.704;6.536;2023-03-23T16:53:21;13.00;99.90
58339;DHT22;68636;52.704;6.536;2023-03-23T16:55:48;12.90;99.90
58339;DHT22;68636;52.704;6.536;2023-03-23T16:58:15;12.80;99.90
58339;DHT22;68636;52.704;6.536;2023-03-23T17:00:42;12.70;99.90
58339;DHT22;68636;52.704;6.536;2023-03-23T17:03:08;12.70;99.90
58339;DHT22;68636;52.704;6.536;2023-03-23T17:05:36;12.60;99.90
58339;DHT22;68636;52.704;6.536;2023-03-23T17:08:02;12.50;99.90
58339;DHT22;68636;52.704;6.536;2023-03-23T17:10:29;12.50;99.90
58339;DHT22;68636;52.704;6.536;2023-03-23T17:12:55;12.50;99.90
58339;DHT22;68636;52.704;6.536;2023-03-23T17:15:21;12.50;99.90
58339;DHT22;68636;52.704;6.536;2023-03-23T17:17:48;12.50;99.90
58339;DHT22;68636;52.704;6.536;2023-03-23T17:20:14;12.50;99.90
58339;DHT22;68636;52.704;6.536;2023-03-23T17:22:40;12.40;99.90
58339;DHT22;68636;52.704;6.536;2023-03-23T17:25:07;12.50;99.90
58339;DHT22;68636;52.704;6.536;2023-03-23T17:27:34;12.40;99.90
58339;DHT22;68636;52.704;6.536;2023-03-23T17:30:01;12.40;99.90
58339;DHT22;68636;52.704;6.536;2023-03-23T17:32:26;12.40;99.90
58339;DHT22;68636;52.704;6.536;2023-03-23T17:34:52;12.40;99.90
58339;DHT22;68636;52.704;6.536;2023-03-23T17:37:19;12.40;99.90
58339;DHT22;68636;52.704;6.536;2023-03-23T17:39:45;12.60;99.90
58339;DHT22;68636;52.704;6.536;2023-03-23T17:42:11;12.40;99.90